createdAt,value
2023-02-08T00:00:04.920Z,43.57
2023-02-08T00:00:39.562Z,44.00
2023-02-08T00:01:15.133Z,43.70
2023-02-08T00:01:46.969Z,44.87
2023-02-08T00:02:18.806Z,44.97
2023-02-08T00:02:50.919Z,42.30
2023-02-08T00:03:22.889Z,43.37
2023-02-08T00:03:55.034Z,44.37
2023-02-08T00:04:26.818Z,45.53
2023-02-08T00:04:58.595Z,44.63
2023-02-08T00:05:30.462Z,45.43
2023-02-08T00:06:02.745Z,43.53
2023-02-08T00:06:34.749Z,44.47
2023-02-08T00:07:06.475Z,44.10
2023-02-08T00:07:38.260Z,44.53
2023-02-08T00:08:10.110Z,44.63
2023-02-08T00:08:42.350Z,45.23
2023-02-08T00:09:14.425Z,43.37
2023-02-08T00:09:46.158Z,45.00
2023-02-08T00:10:17.912Z,44.37
2023-02-08T00:10:49.725Z,43.70
2023-02-08T00:11:21.500Z,45.27
2023-02-08T00:11:53.251Z,46.30
2023-02-08T00:12:25.056Z,45.23
2023-02-08T00:12:56.924Z,47.50
2023-02-08T00:13:28.860Z,46.67
2023-02-08T00:14:00.610Z,47.17
2023-02-08T00:14:32.471Z,48.13
2023-02-08T00:15:05.749Z,47.73
2023-02-08T00:15:45.099Z,46.43
2023-02-08T00:16:18.518Z,46.13
2023-02-08T00:16:50.357Z,46.43
2023-02-08T00:17:22.105Z,46.87
2023-02-08T00:17:53.883Z,45.23
2023-02-08T00:18:25.649Z,44.50
2023-02-08T00:18:57.370Z,46.50
2023-02-08T00:19:29.132Z,46.10
2023-02-08T00:20:00.879Z,45.50
2023-02-08T00:20:32.691Z,45.53
2023-02-08T00:21:12.818Z,46.73
2023-02-08T00:21:44.642Z,46.37
2023-02-08T00:22:16.537Z,46.50
2023-02-08T00:22:48.362Z,44.13
2023-02-08T00:23:20.191Z,44.27
2023-02-08T00:23:51.950Z,45.53
2023-02-08T00:24:23.737Z,46.27
2023-02-08T00:24:55.569Z,45.70
2023-02-08T00:25:27.396Z,44.37
2023-02-08T00:25:59.225Z,44.77
2023-02-08T00:26:31.066Z,44.27
2023-02-08T00:27:02.822Z,45.03
2023-02-08T00:27:34.655Z,44.20
2023-02-08T00:28:09.303Z,44.27
2023-02-08T00:28:41.286Z,44.93
2023-02-08T00:29:13.109Z,45.83
2023-02-08T00:29:44.954Z,44.53
2023-02-08T00:30:16.729Z,45.13
2023-02-08T00:30:49.094Z,44.43
2023-02-08T00:31:21.003Z,45.00
2023-02-08T00:31:52.874Z,45.23
2023-02-08T00:32:24.852Z,43.90
2023-02-08T00:32:56.810Z,44.63
2023-02-08T00:33:28.637Z,43.23
2023-02-08T00:34:00.459Z,44.33
2023-02-08T00:34:32.478Z,45.90
2023-02-08T00:35:04.354Z,44.23
2023-02-08T00:35:36.532Z,42.13
2023-02-08T00:36:09.173Z,41.87
2023-02-08T00:36:41.066Z,43.37
2023-02-08T00:37:12.851Z,42.17
2023-02-08T00:37:44.571Z,42.27
2023-02-08T00:38:16.509Z,42.20
2023-02-08T00:38:48.241Z,42.07
2023-02-08T00:39:21.254Z,42.90
2023-02-08T00:39:53.055Z,44.73
2023-02-08T00:40:25.537Z,42.47
2023-02-08T00:40:57.521Z,42.10
2023-02-08T00:41:29.263Z,42.57
2023-02-08T00:42:01.014Z,42.60
2023-02-08T00:42:36.290Z,41.57
2023-02-08T00:43:08.089Z,41.07
2023-02-08T00:43:39.946Z,41.90
2023-02-08T00:44:11.999Z,42.33
2023-02-08T00:44:43.747Z,41.90
2023-02-08T00:45:15.510Z,42.30
2023-02-08T00:45:47.265Z,40.67
2023-02-08T00:46:19.145Z,40.40
2023-02-08T00:46:51.116Z,41.30
2023-02-08T00:47:23.638Z,40.40
2023-02-08T00:47:55.411Z,39.43
2023-02-08T00:48:28.509Z,41.87
2023-02-08T00:49:00.323Z,41.63
2023-02-08T00:49:32.097Z,41.93
2023-02-08T00:50:05.282Z,41.37
2023-02-08T00:50:37.110Z,41.37
2023-02-08T00:51:13.601Z,42.53
2023-02-08T00:51:45.385Z,42.73
2023-02-08T00:52:17.692Z,41.80
2023-02-08T00:52:49.549Z,43.00
2023-02-08T00:53:21.296Z,45.70
2023-02-08T00:53:53.069Z,45.47
2023-02-08T00:54:24.885Z,45.33
2023-02-08T00:54:56.848Z,43.33
2023-02-08T00:55:28.627Z,42.80
2023-02-08T00:56:00.412Z,41.33
2023-02-08T00:56:32.137Z,43.43
2023-02-08T00:57:03.984Z,45.90
2023-02-08T00:57:36.197Z,46.07
2023-02-08T00:58:08.011Z,43.67
2023-02-08T00:58:40.718Z,43.27
2023-02-08T00:59:13.320Z,42.50
2023-02-08T00:59:45.109Z,43.67
2023-02-08T01:00:17.128Z,44.43
2023-02-08T01:00:53.097Z,45.33
2023-02-08T01:01:24.944Z,42.90
2023-02-08T01:01:56.716Z,42.67
2023-02-08T01:02:28.840Z,42.57
2023-02-08T01:03:00.626Z,42.47
2023-02-08T01:03:37.854Z,42.97
2023-02-08T01:04:09.864Z,43.13
2023-02-08T01:04:41.647Z,44.57
2023-02-08T01:05:13.436Z,43.37
2023-02-08T01:05:45.202Z,42.80
2023-02-08T01:06:18.141Z,42.10
2023-02-08T01:06:49.871Z,42.13
2023-02-08T01:07:21.548Z,42.43
2023-02-08T01:07:53.283Z,42.83
2023-02-08T01:08:25.009Z,41.83
2023-02-08T01:08:56.802Z,43.50
2023-02-08T01:09:28.709Z,42.47
2023-02-08T01:10:00.730Z,42.70
2023-02-08T01:10:33.661Z,41.90
2023-02-08T01:11:05.536Z,41.80
2023-02-08T01:11:37.441Z,41.90
2023-02-08T01:12:09.601Z,41.50
2023-02-08T01:12:41.516Z,42.40
2023-02-08T01:13:13.670Z,42.37
2023-02-08T01:13:45.477Z,41.90
2023-02-08T01:14:17.311Z,41.77
2023-02-08T01:14:49.091Z,41.07
2023-02-08T01:15:20.845Z,41.30
2023-02-08T01:15:52.654Z,41.53
2023-02-08T01:16:27.911Z,40.30
2023-02-08T01:16:59.674Z,40.40
2023-02-08T01:17:31.449Z,41.80
2023-02-08T01:18:03.790Z,39.97
2023-02-08T01:18:35.682Z,40.63
2023-02-08T01:19:07.609Z,42.03
2023-02-08T01:19:41.112Z,41.87
2023-02-08T01:20:14.001Z,40.63
2023-02-08T01:20:45.813Z,41.57
2023-02-08T01:21:21.274Z,41.67
2023-02-08T01:21:53.079Z,41.60
2023-02-08T01:22:24.820Z,40.87
2023-02-08T01:22:57.150Z,41.33
2023-02-08T01:23:28.878Z,40.83
2023-02-08T01:24:01.453Z,40.43
2023-02-08T01:24:33.632Z,40.80
2023-02-08T01:25:05.635Z,40.80
2023-02-08T01:25:37.393Z,41.40
2023-02-08T01:26:10.855Z,41.87
2023-02-08T01:26:42.752Z,40.43
2023-02-08T01:27:14.503Z,40.00
2023-02-08T01:27:46.207Z,40.77
2023-02-08T01:28:17.955Z,41.87
2023-02-08T01:28:51.013Z,41.27
2023-02-08T01:29:22.783Z,39.97
2023-02-08T01:29:54.623Z,40.47
2023-02-08T01:30:27.410Z,40.53
2023-02-08T01:30:59.856Z,40.53
2023-02-08T01:31:37.675Z,40.17
2023-02-08T01:32:09.495Z,40.87
2023-02-08T01:32:41.295Z,41.53
2023-02-08T01:33:12.994Z,40.87
2023-02-08T01:33:44.802Z,40.83
2023-02-08T01:34:16.582Z,42.70
2023-02-08T01:34:48.374Z,42.47
2023-02-08T01:35:20.202Z,43.27
2023-02-08T01:35:53.487Z,41.10
2023-02-08T01:36:26.970Z,41.03
2023-02-08T01:36:58.832Z,41.73
2023-02-08T01:37:30.688Z,42.23
2023-02-08T01:38:02.462Z,40.63
2023-02-08T01:38:35.703Z,41.70
2023-02-08T01:39:08.681Z,40.03
2023-02-08T01:39:40.395Z,42.23
2023-02-08T01:40:12.756Z,40.87
2023-02-08T01:40:44.492Z,41.30
2023-02-08T01:41:31.267Z,42.43
2023-02-08T01:42:03.047Z,42.57
2023-02-08T01:42:34.782Z,41.63
2023-02-08T01:43:24.962Z,42.00
2023-02-08T01:44:41.005Z,41.73
2023-02-08T01:45:15.573Z,42.63
2023-02-08T01:45:47.417Z,42.83
2023-02-08T01:46:19.142Z,44.13
2023-02-08T01:46:51.457Z,41.50
2023-02-08T01:47:23.211Z,42.53
2023-02-08T01:48:12.162Z,42.93
2023-02-08T01:48:43.937Z,43.70
2023-02-08T01:49:19.626Z,44.50
2023-02-08T01:49:51.732Z,44.03
2023-02-08T01:50:30.814Z,42.87
2023-02-08T01:51:32.218Z,43.80
2023-02-08T01:52:22.061Z,45.03
2023-02-08T01:52:53.794Z,43.90
2023-02-08T01:53:28.704Z,42.83
2023-02-08T01:54:03.905Z,41.87
2023-02-08T01:54:43.290Z,43.30
2023-02-08T01:55:24.749Z,44.13
2023-02-08T01:56:00.846Z,44.10
2023-02-08T01:56:39.045Z,44.80
2023-02-08T01:57:11.203Z,44.73
2023-02-08T01:57:44.313Z,44.00
2023-02-08T01:58:19.184Z,43.33
2023-02-08T01:58:56.470Z,46.13
2023-02-08T01:59:43.229Z,45.07
2023-02-08T02:00:21.313Z,44.93
2023-02-08T02:00:53.644Z,45.37
2023-02-08T02:01:29.148Z,42.83
2023-02-08T02:02:03.003Z,45.53
2023-02-08T02:02:37.200Z,44.20
2023-02-08T02:03:09.267Z,44.23
2023-02-08T02:03:41.061Z,45.97
2023-02-08T02:04:13.553Z,45.67
2023-02-08T02:04:46.006Z,45.73
2023-02-08T02:05:17.993Z,47.07
2023-02-08T02:05:55.590Z,46.87
2023-02-08T02:06:33.325Z,45.83
2023-02-08T02:07:05.967Z,46.60
2023-02-08T02:07:38.843Z,46.00
2023-02-08T02:08:12.235Z,45.57
2023-02-08T02:08:58.264Z,46.47
2023-02-08T02:09:51.221Z,45.73
2023-02-08T02:10:29.430Z,46.33
2023-02-08T02:11:01.148Z,48.27
2023-02-08T02:11:33.092Z,46.77
2023-02-08T02:12:08.583Z,47.03
2023-02-08T02:12:42.289Z,46.57
2023-02-08T02:13:19.496Z,48.10
2023-02-08T02:13:51.420Z,47.27
2023-02-08T02:14:23.984Z,46.53
2023-02-08T02:14:56.291Z,46.20
2023-02-08T02:15:28.123Z,47.10
2023-02-08T02:15:59.893Z,46.87
2023-02-08T02:16:31.852Z,48.63
2023-02-08T02:17:03.843Z,47.50
2023-02-08T02:17:37.559Z,45.60
2023-02-08T02:18:10.156Z,45.70
2023-02-08T02:18:42.023Z,47.23
2023-02-08T02:19:40.350Z,47.10
2023-02-08T02:20:33.445Z,47.03
2023-02-08T02:21:11.152Z,47.27
2023-02-08T02:22:09.623Z,48.13
2023-02-08T02:23:08.938Z,46.30
2023-02-08T02:24:19.622Z,47.83
2023-02-08T02:25:19.754Z,48.97
2023-02-08T02:25:54.349Z,48.63
2023-02-08T02:26:58.128Z,49.97
2023-02-08T02:27:49.546Z,48.20
2023-02-08T02:28:52.903Z,46.03
2023-02-08T02:29:43.071Z,46.17
2023-02-08T02:30:41.359Z,44.53
2023-02-08T02:31:51.651Z,44.03
2023-02-08T02:32:55.364Z,44.40
2023-02-08T02:33:40.283Z,44.70
2023-02-08T02:34:35.118Z,44.03
2023-02-08T02:35:22.265Z,43.70
2023-02-08T02:36:17.444Z,45.27
2023-02-08T02:37:11.277Z,45.50
2023-02-08T02:37:53.259Z,44.00
2023-02-08T02:39:02.846Z,44.23
2023-02-08T02:39:45.630Z,43.70
2023-02-08T02:40:31.407Z,42.87
2023-02-08T02:41:49.090Z,43.80
2023-02-08T02:42:59.736Z,45.33
2023-02-08T02:43:46.544Z,44.47
2023-02-08T02:44:47.009Z,47.27
2023-02-08T02:46:15.059Z,45.47
2023-02-08T02:47:15.825Z,46.07
2023-02-08T02:48:05.984Z,47.00
2023-02-08T02:48:49.006Z,46.63
2023-02-08T02:49:59.262Z,46.67
2023-02-08T02:50:47.906Z,48.20
2023-02-08T02:51:40.539Z,49.03
2023-02-08T02:52:19.882Z,48.93
2023-02-08T02:52:58.616Z,48.77
2023-02-08T02:53:44.827Z,48.57
2023-02-08T02:54:29.215Z,49.17
2023-02-08T02:55:10.689Z,49.07
2023-02-08T02:55:47.547Z,48.83
2023-02-08T02:56:24.350Z,49.43
2023-02-08T02:57:03.360Z,47.47
2023-02-08T02:57:36.461Z,50.57
2023-02-08T02:58:12.193Z,48.33
2023-02-08T02:58:45.704Z,48.57
2023-02-08T02:59:19.105Z,47.87
2023-02-08T02:59:51.036Z,48.97
2023-02-08T03:00:26.203Z,49.13
2023-02-08T03:00:59.759Z,50.53
2023-02-08T03:01:32.740Z,49.07
2023-02-08T03:02:05.778Z,50.03
2023-02-08T03:02:38.126Z,49.37
2023-02-08T03:03:28.328Z,48.00
2023-02-08T03:04:00.298Z,49.00
2023-02-08T03:04:35.075Z,49.17
2023-02-08T03:05:07.942Z,50.17
2023-02-08T03:05:39.792Z,50.67
2023-02-08T03:06:20.451Z,50.77
2023-02-08T03:07:20.013Z,50.27
2023-02-08T03:08:00.351Z,47.67
2023-02-08T03:09:05.581Z,48.27
2023-02-08T03:09:47.815Z,48.80
2023-02-08T03:10:44.438Z,49.37
2023-02-08T03:11:22.917Z,49.30
2023-02-08T03:12:21.937Z,49.27
2023-02-08T03:12:59.129Z,49.30
2023-02-08T03:13:53.065Z,48.97
2023-02-08T03:14:37.316Z,47.70
2023-02-08T03:15:40.529Z,48.47
2023-02-08T03:16:15.071Z,46.50
2023-02-08T03:17:31.494Z,48.93
2023-02-08T03:18:30.453Z,47.20
2023-02-08T03:19:22.092Z,48.03
2023-02-08T03:20:07.135Z,47.97
2023-02-08T03:20:47.378Z,48.43
2023-02-08T03:21:39.333Z,47.83
2023-02-08T03:22:20.036Z,48.57
2023-02-08T03:23:08.608Z,49.10
2023-02-08T03:23:49.904Z,48.30
2023-02-08T03:24:52.030Z,47.43
2023-02-08T03:25:35.035Z,47.37
2023-02-08T03:26:31.637Z,48.00
2023-02-08T03:27:27.440Z,49.93
2023-02-08T03:28:11.234Z,48.47
2023-02-08T03:29:02.424Z,49.10
2023-02-08T03:29:45.081Z,49.40
2023-02-08T03:30:34.508Z,50.43
2023-02-08T03:31:19.483Z,48.53
2023-02-08T03:32:36.410Z,50.27
2023-02-08T03:33:26.922Z,48.50
2023-02-08T03:34:07.414Z,49.90
2023-02-08T03:34:58.070Z,49.20
2023-02-08T03:35:33.358Z,47.77
2023-02-08T03:36:23.134Z,48.73
2023-02-08T03:36:57.909Z,50.53
2023-02-08T03:37:54.038Z,49.80
2023-02-08T03:38:33.530Z,47.27
2023-02-08T03:39:12.906Z,48.80
2023-02-08T03:39:48.713Z,50.90
2023-02-08T03:40:31.284Z,49.00
2023-02-08T03:41:10.287Z,47.13
2023-02-08T03:41:48.666Z,47.40
2023-02-08T03:42:25.467Z,47.00
2023-02-08T03:43:08.387Z,47.57
2023-02-08T03:43:45.081Z,47.60
2023-02-08T03:44:34.402Z,47.20
2023-02-08T03:45:22.989Z,49.57
2023-02-08T03:46:07.700Z,47.77
2023-02-08T03:47:10.032Z,48.30
2023-02-08T03:47:46.049Z,47.40
2023-02-08T03:48:23.417Z,47.23
2023-02-08T03:49:02.741Z,47.27
2023-02-08T03:49:36.656Z,47.07
2023-02-08T03:50:12.465Z,48.67
2023-02-08T03:50:49.486Z,47.93
2023-02-08T03:51:24.678Z,47.93
2023-02-08T03:52:00.381Z,47.10
2023-02-08T03:52:34.639Z,48.40
2023-02-08T03:53:08.809Z,48.13
2023-02-08T03:53:43.440Z,48.07
2023-02-08T03:54:23.404Z,48.43
2023-02-08T03:55:02.053Z,49.43
2023-02-08T03:55:37.748Z,47.93
2023-02-08T03:56:25.033Z,48.60
2023-02-08T03:57:13.343Z,48.13
2023-02-08T03:57:49.687Z,49.97
2023-02-08T03:58:32.568Z,50.87
2023-02-08T03:59:12.376Z,50.40
2023-02-08T03:59:50.066Z,48.93
2023-02-08T04:00:23.206Z,49.87
2023-02-08T04:01:16.502Z,50.63
2023-02-08T04:02:06.988Z,50.73
2023-02-08T04:02:51.924Z,53.27
2023-02-08T04:03:28.695Z,53.10
2023-02-08T04:04:01.253Z,50.00
2023-02-08T04:04:40.434Z,49.77
2023-02-08T04:05:13.706Z,51.07
2023-02-08T04:05:46.734Z,52.23
2023-02-08T04:06:18.580Z,51.23
2023-02-08T04:06:50.706Z,52.27
2023-02-08T04:07:23.038Z,52.40
2023-02-08T04:07:55.272Z,52.50
2023-02-08T04:08:27.009Z,50.80
2023-02-08T04:08:58.718Z,50.43
2023-02-08T04:09:30.484Z,53.37
2023-02-08T04:10:04.131Z,53.50
2023-02-08T04:10:35.921Z,53.17
2023-02-08T04:11:07.690Z,53.87
2023-02-08T04:11:39.458Z,52.90
2023-02-08T04:12:11.496Z,51.47
2023-02-08T04:12:43.933Z,49.60
2023-02-08T04:13:15.701Z,50.50
2023-02-08T04:13:47.445Z,50.37
2023-02-08T04:14:19.246Z,49.50
2023-02-08T04:14:51.004Z,49.27
2023-02-08T04:15:22.791Z,50.13
2023-02-08T04:15:54.638Z,50.20
2023-02-08T04:16:26.496Z,49.77
2023-02-08T04:16:58.268Z,49.20
2023-02-08T04:17:30.148Z,49.63
2023-02-08T04:18:01.976Z,49.73
2023-02-08T04:18:33.715Z,51.03
2023-02-08T04:19:05.554Z,50.90
2023-02-08T04:19:37.315Z,49.63
2023-02-08T04:20:09.607Z,50.63
2023-02-08T04:20:41.753Z,52.80
2023-02-08T04:21:13.646Z,50.53
2023-02-08T04:21:45.496Z,50.93
2023-02-08T04:22:17.274Z,50.73
2023-02-08T04:22:49.580Z,51.03
2023-02-08T04:23:21.345Z,49.83
2023-02-08T04:23:53.085Z,49.53
2023-02-08T04:24:25.091Z,50.37
2023-02-08T04:24:56.887Z,50.73
2023-02-08T04:25:28.681Z,50.53
2023-02-08T04:26:00.391Z,48.67
2023-02-08T04:26:32.213Z,49.27
2023-02-08T04:27:05.936Z,49.97
2023-02-08T04:27:38.080Z,50.70
2023-02-08T04:28:09.872Z,49.00
2023-02-08T04:28:41.794Z,49.80
2023-02-08T04:29:13.711Z,49.03
2023-02-08T04:29:45.736Z,48.00
2023-02-08T04:30:17.634Z,49.27
2023-02-08T04:30:49.436Z,47.33
2023-02-08T04:31:21.559Z,47.07
2023-02-08T04:31:53.620Z,47.63
2023-02-08T04:32:25.473Z,47.43
2023-02-08T04:32:58.348Z,48.27
2023-02-08T04:33:30.073Z,47.90
2023-02-08T04:34:02.818Z,47.27
2023-02-08T04:34:34.547Z,47.67
2023-02-08T04:35:06.974Z,48.83
2023-02-08T04:35:39.058Z,47.17
2023-02-08T04:36:10.905Z,45.57
2023-02-08T04:36:43.172Z,46.00
2023-02-08T04:37:15.186Z,47.07
2023-02-08T04:37:47.100Z,45.33
2023-02-08T04:38:18.908Z,45.53
2023-02-08T04:38:50.626Z,44.93
2023-02-08T04:39:22.353Z,43.63
2023-02-08T04:39:54.076Z,44.17
2023-02-08T04:40:25.910Z,43.60
2023-02-08T04:40:57.691Z,43.87
2023-02-08T04:41:29.450Z,43.97
2023-02-08T04:42:03.166Z,44.47
2023-02-08T04:42:35.510Z,43.13
2023-02-08T04:43:07.257Z,43.73
2023-02-08T04:43:38.945Z,43.60
2023-02-08T04:44:10.771Z,44.20
2023-02-08T04:44:42.507Z,44.73
2023-02-08T04:45:14.262Z,45.17
2023-02-08T04:45:46.140Z,44.57
2023-02-08T04:46:17.980Z,43.97
2023-02-08T04:46:50.156Z,44.83
2023-02-08T04:47:22.092Z,47.30
2023-02-08T04:47:54.116Z,45.50
2023-02-08T04:48:25.875Z,45.07
2023-02-08T04:48:58.944Z,46.80
2023-02-08T04:49:30.958Z,46.20
2023-02-08T04:50:04.043Z,46.30
2023-02-08T04:50:35.832Z,47.90
2023-02-08T04:51:07.582Z,46.83
2023-02-08T04:51:39.358Z,45.57
2023-02-08T04:52:11.175Z,46.33
2023-02-08T04:52:42.898Z,44.97
2023-02-08T04:53:14.728Z,43.93
2023-02-08T04:53:46.690Z,45.13
2023-02-08T04:54:18.493Z,44.37
2023-02-08T04:54:50.411Z,44.03
2023-02-08T04:55:22.386Z,46.33
2023-02-08T04:55:54.427Z,47.70
2023-02-08T04:56:26.212Z,46.77
2023-02-08T04:56:58.169Z,46.53
2023-02-08T04:57:29.938Z,46.27
2023-02-08T04:58:02.176Z,48.43
2023-02-08T04:58:34.378Z,47.90
2023-02-08T04:59:06.179Z,49.97
2023-02-08T04:59:37.948Z,50.07
2023-02-08T05:00:10.252Z,47.40
2023-02-08T05:00:42.354Z,47.37
2023-02-08T05:01:16.456Z,53.03
2023-02-08T05:01:48.484Z,50.30
2023-02-08T05:02:20.812Z,52.37
2023-02-08T05:02:54.788Z,48.93
2023-02-08T05:03:26.547Z,48.77
2023-02-08T05:03:58.466Z,49.07
2023-02-08T05:04:31.177Z,50.70
2023-02-08T05:05:03.082Z,47.93
2023-02-08T05:05:34.935Z,48.10
2023-02-08T05:06:07.036Z,48.50
2023-02-08T05:06:38.899Z,50.53
2023-02-08T05:07:10.614Z,50.27
2023-02-08T05:07:42.362Z,47.77
2023-02-08T05:08:14.182Z,48.47
2023-02-08T05:08:45.975Z,47.90
2023-02-08T05:09:17.947Z,48.83
2023-02-08T05:09:49.749Z,49.90
2023-02-08T05:10:22.536Z,50.07
2023-02-08T05:10:54.356Z,48.80
2023-02-08T05:11:26.974Z,50.17
2023-02-08T05:11:58.845Z,52.97
2023-02-08T05:12:31.165Z,52.20
2023-02-08T05:13:03.048Z,50.60
2023-02-08T05:13:34.885Z,50.77
2023-02-08T05:14:06.716Z,49.03
2023-02-08T05:14:38.497Z,49.20
2023-02-08T05:15:10.913Z,50.53
2023-02-08T05:15:42.785Z,50.57
2023-02-08T05:16:14.766Z,52.57
2023-02-08T05:16:46.606Z,51.53
2023-02-08T05:17:18.401Z,51.73
2023-02-08T05:17:50.264Z,50.93
2023-02-08T05:18:22.066Z,50.10
2023-02-08T05:18:56.679Z,49.03
2023-02-08T05:19:28.942Z,50.97
2023-02-08T05:20:00.857Z,51.20
2023-02-08T05:20:33.798Z,53.07
2023-02-08T05:21:05.729Z,51.67
2023-02-08T05:21:37.727Z,52.50
2023-02-08T05:22:09.548Z,52.70
2023-02-08T05:22:41.418Z,52.43
2023-02-08T05:23:13.207Z,52.47
2023-02-08T05:23:46.762Z,53.33
2023-02-08T05:24:18.662Z,52.93
2023-02-08T05:24:50.594Z,52.93
2023-02-08T05:25:23.108Z,52.47
2023-02-08T05:25:55.016Z,51.90
2023-02-08T05:26:27.050Z,52.97
2023-02-08T05:26:58.802Z,52.70
2023-02-08T05:27:30.884Z,53.00
2023-02-08T05:28:03.103Z,51.00
2023-02-08T05:28:35.398Z,50.97
2023-02-08T05:29:07.630Z,54.27
2023-02-08T05:29:39.445Z,56.03
2023-02-08T05:30:11.792Z,55.03
2023-02-08T05:30:43.645Z,57.37
2023-02-08T05:31:21.174Z,59.00
2023-02-08T05:31:53.104Z,52.17
2023-02-08T05:32:24.863Z,51.53
2023-02-08T05:32:56.644Z,55.37
2023-02-08T05:33:28.435Z,54.47
2023-02-08T05:34:00.312Z,54.57
2023-02-08T05:34:32.202Z,56.13
2023-02-08T05:35:04.238Z,53.97
2023-02-08T05:35:35.992Z,51.90
2023-02-08T05:36:08.275Z,52.47
2023-02-08T05:36:40.095Z,51.63
2023-02-08T05:37:12.626Z,50.10
2023-02-08T05:37:44.364Z,50.20
2023-02-08T05:38:16.143Z,55.50
2023-02-08T05:38:47.869Z,53.63
2023-02-08T05:39:19.762Z,51.20
2023-02-08T05:39:51.569Z,51.07
2023-02-08T05:40:23.283Z,49.80
2023-02-08T05:40:55.078Z,51.20
2023-02-08T05:41:26.841Z,50.07
2023-02-08T05:41:58.810Z,47.77
2023-02-08T05:42:30.520Z,48.93
2023-02-08T05:43:02.467Z,50.40
2023-02-08T05:43:34.319Z,49.60
2023-02-08T05:44:06.313Z,49.30
2023-02-08T05:44:38.605Z,47.53
2023-02-08T05:45:10.530Z,47.80
2023-02-08T05:45:42.445Z,47.67
2023-02-08T05:46:14.845Z,47.47
2023-02-08T05:46:46.761Z,46.07
2023-02-08T05:47:18.808Z,47.00
2023-02-08T05:47:50.753Z,49.10
2023-02-08T05:48:22.557Z,48.83
2023-02-08T05:48:54.340Z,54.00
2023-02-08T05:49:26.143Z,52.77
2023-02-08T05:49:57.856Z,52.83
2023-02-08T05:50:29.576Z,51.43
2023-02-08T05:51:01.482Z,48.47
2023-02-08T05:51:33.383Z,48.97
2023-02-08T05:52:05.289Z,50.47
2023-02-08T05:52:37.066Z,50.57
2023-02-08T05:53:09.161Z,52.47
2023-02-08T05:53:40.970Z,52.57
2023-02-08T05:54:12.821Z,51.53
2023-02-08T05:54:44.570Z,50.93
2023-02-08T05:55:16.386Z,52.30
2023-02-08T05:55:48.740Z,52.00
2023-02-08T05:56:20.531Z,54.40
2023-02-08T05:56:52.371Z,56.80
2023-02-08T05:57:24.205Z,56.77
2023-02-08T05:57:56.023Z,54.50
2023-02-08T05:58:28.362Z,50.50
2023-02-08T05:59:01.610Z,51.47
2023-02-08T05:59:33.758Z,50.50
2023-02-08T06:00:06.283Z,49.73
2023-02-08T06:00:38.610Z,49.37
2023-02-08T06:01:12.373Z,48.07
2023-02-08T06:01:44.081Z,45.43
2023-02-08T06:02:15.905Z,46.33
2023-02-08T06:02:47.810Z,44.83
2023-02-08T06:03:19.776Z,44.07
2023-02-08T06:03:51.616Z,43.30
2023-02-08T06:04:23.433Z,45.53
2023-02-08T06:04:55.151Z,46.00
2023-02-08T06:05:28.448Z,44.90
2023-02-08T06:06:01.702Z,45.80
2023-02-08T06:06:33.559Z,46.50
2023-02-08T06:07:05.490Z,46.00
2023-02-08T06:07:37.357Z,43.27
2023-02-08T06:08:09.757Z,43.70
2023-02-08T06:08:41.606Z,42.47
2023-02-08T06:09:13.426Z,42.87
2023-02-08T06:09:47.072Z,45.53
2023-02-08T06:10:20.041Z,46.60
2023-02-08T06:10:51.814Z,46.03
2023-02-08T06:11:23.772Z,43.77
2023-02-08T06:11:55.595Z,42.13
2023-02-08T06:12:27.391Z,43.70
2023-02-08T06:12:59.572Z,43.63
2023-02-08T06:13:31.763Z,43.47
2023-02-08T06:14:03.946Z,43.00
2023-02-08T06:14:35.751Z,43.73
2023-02-08T06:15:07.964Z,44.73
2023-02-08T06:15:39.789Z,45.33
2023-02-08T06:16:12.141Z,42.77
2023-02-08T06:16:43.913Z,42.40
2023-02-08T06:17:15.743Z,41.87
2023-02-08T06:17:47.651Z,43.47
2023-02-08T06:18:19.406Z,43.27
2023-02-08T06:18:51.325Z,44.07
2023-02-08T06:19:23.099Z,43.53
2023-02-08T06:19:55.283Z,45.80
2023-02-08T06:20:27.138Z,47.20
2023-02-08T06:20:59.278Z,46.47
2023-02-08T06:21:31.185Z,44.80
2023-02-08T06:22:02.939Z,44.33
2023-02-08T06:22:35.456Z,44.93
2023-02-08T06:23:07.429Z,44.17
2023-02-08T06:23:40.059Z,46.27
2023-02-08T06:24:12.182Z,45.47
2023-02-08T06:24:44.074Z,45.90
2023-02-08T06:25:15.932Z,46.33
2023-02-08T06:25:47.687Z,47.00
2023-02-08T06:26:19.559Z,46.33
2023-02-08T06:26:51.715Z,47.60
2023-02-08T06:27:23.447Z,46.07
2023-02-08T06:27:57.272Z,47.03
2023-02-08T06:28:29.277Z,47.37
2023-02-08T06:29:01.261Z,46.77
2023-02-08T06:29:32.970Z,48.83
2023-02-08T06:30:05.232Z,50.87
2023-02-08T06:30:38.317Z,48.43
2023-02-08T06:31:10.238Z,49.23
2023-02-08T06:31:42.277Z,50.83
2023-02-08T06:32:14.109Z,50.90
2023-02-08T06:32:46.049Z,51.90
2023-02-08T06:33:18.868Z,50.83
2023-02-08T06:33:50.810Z,50.30
2023-02-08T06:34:22.601Z,51.07
2023-02-08T06:34:55.081Z,49.23
2023-02-08T06:35:26.895Z,48.17
2023-02-08T06:35:58.736Z,47.67
2023-02-08T06:36:30.516Z,52.37
2023-02-08T06:37:02.367Z,52.97
2023-02-08T06:37:34.357Z,53.03
2023-02-08T06:38:06.155Z,48.43
2023-02-08T06:38:37.891Z,44.63
2023-02-08T06:39:09.662Z,45.30
2023-02-08T06:39:41.751Z,46.00
2023-02-08T06:40:13.561Z,48.87
2023-02-08T06:40:47.077Z,48.33
2023-02-08T06:41:18.973Z,46.97
2023-02-08T06:41:50.694Z,46.60
2023-02-08T06:42:22.430Z,51.87
2023-02-08T06:42:54.345Z,51.60
2023-02-08T06:43:26.257Z,49.33
2023-02-08T06:44:00.121Z,47.27
2023-02-08T06:44:31.851Z,45.10
2023-02-08T06:45:04.647Z,44.33
2023-02-08T06:45:36.574Z,44.17
2023-02-08T06:46:08.816Z,44.10
2023-02-08T06:46:40.675Z,44.43
2023-02-08T06:47:12.573Z,43.63
2023-02-08T06:47:44.513Z,43.90
2023-02-08T06:48:16.442Z,43.60
2023-02-08T06:48:48.225Z,47.93
2023-02-08T06:49:20.062Z,50.63
2023-02-08T06:49:52.158Z,58.80
2023-02-08T06:50:24.253Z,50.43
2023-02-08T06:50:56.051Z,54.87
2023-02-08T06:51:27.997Z,45.40
2023-02-08T06:51:59.776Z,42.93
2023-02-08T06:52:31.514Z,41.20
2023-02-08T06:53:03.652Z,39.87
2023-02-08T06:53:35.425Z,40.80
2023-02-08T06:54:07.488Z,42.20
2023-02-08T06:54:39.215Z,41.87
2023-02-08T06:55:10.977Z,43.40
2023-02-08T06:55:42.822Z,44.60
2023-02-08T06:56:14.533Z,43.27
2023-02-08T06:56:46.330Z,42.17
2023-02-08T06:57:18.128Z,45.13
2023-02-08T06:57:54.061Z,40.93
2023-02-08T06:58:26.174Z,38.63
2023-02-08T06:58:58.251Z,38.97
2023-02-08T06:59:30.371Z,38.83
2023-02-08T07:00:02.508Z,37.87
2023-02-08T07:00:34.329Z,39.07
2023-02-08T07:01:06.516Z,39.90
2023-02-08T07:01:38.542Z,39.37
2023-02-08T07:02:13.575Z,40.60
2023-02-08T07:02:47.388Z,40.77
2023-02-08T07:03:19.173Z,40.00
2023-02-08T07:03:50.996Z,41.17
2023-02-08T07:04:22.744Z,40.67
2023-02-08T07:04:54.501Z,41.50
2023-02-08T07:05:26.386Z,43.30
2023-02-08T07:06:04.513Z,44.57
2023-02-08T07:06:36.649Z,45.47
2023-02-08T07:07:08.738Z,42.37
2023-02-08T07:07:40.677Z,41.37
2023-02-08T07:08:12.551Z,41.60
2023-02-08T07:08:44.911Z,45.27
2023-02-08T07:09:17.697Z,48.53
2023-02-08T07:09:49.474Z,45.90
2023-02-08T07:10:21.493Z,52.70
2023-02-08T07:10:53.416Z,73.10
2023-02-08T07:11:25.206Z,51.63
2023-02-08T07:11:56.975Z,52.40
2023-02-08T07:12:28.698Z,47.50
2023-02-08T07:13:02.539Z,47.20
2023-02-08T07:13:34.300Z,47.90
2023-02-08T07:14:06.271Z,43.77
2023-02-08T07:14:41.573Z,45.10
2023-02-08T07:15:13.793Z,46.47
2023-02-08T07:15:45.572Z,48.80
2023-02-08T07:16:19.170Z,45.23
2023-02-08T07:16:51.868Z,41.90
2023-02-08T07:17:23.805Z,42.77
2023-02-08T07:17:55.631Z,47.47
2023-02-08T07:18:27.419Z,47.13
2023-02-08T07:18:59.255Z,43.70
2023-02-08T07:19:31.349Z,42.63
2023-02-08T07:20:03.527Z,42.20
2023-02-08T07:20:35.318Z,42.93
2023-02-08T07:21:07.304Z,42.93
2023-02-08T07:21:39.066Z,43.97
2023-02-08T07:22:10.876Z,44.40
2023-02-08T07:22:43.029Z,45.27
2023-02-08T07:23:14.782Z,46.17
2023-02-08T07:23:46.525Z,48.30
2023-02-08T07:24:18.248Z,45.97
2023-02-08T07:24:50.078Z,47.33
2023-02-08T07:25:22.057Z,46.67
2023-02-08T07:25:58.723Z,44.57
2023-02-08T07:26:30.485Z,45.63
2023-02-08T07:27:02.964Z,46.30
2023-02-08T07:27:35.302Z,45.77
2023-02-08T07:28:07.230Z,62.13
2023-02-08T07:28:39.286Z,60.97
2023-02-08T07:29:11.078Z,41.73
2023-02-08T07:29:42.887Z,42.33
2023-02-08T07:30:14.842Z,44.53
2023-02-08T07:30:46.637Z,43.40
2023-02-08T07:31:18.822Z,46.53